createdAt,value
2023-04-06T00:02:02.468Z,84.54
2023-04-06T00:04:28.817Z,84.37
2023-04-06T00:06:55.239Z,84.28
2023-04-06T00:09:21.641Z,84.39
2023-04-06T00:11:48.087Z,84.27
2023-04-06T00:14:14.455Z,84.29
2023-04-06T00:16:40.894Z,84.32
2023-04-06T00:19:07.474Z,84.31
2023-04-06T00:21:33.696Z,84.36
2023-04-06T00:24:00.127Z,84.43
2023-04-06T00:26:26.443Z,84.38
2023-04-06T00:28:52.849Z,84.27
2023-04-06T00:31:19.217Z,84.22
2023-04-06T00:33:45.630Z,84.23
2023-04-06T00:36:12.083Z,84.07
2023-04-06T00:38:38.393Z,83.61
2023-04-06T00:41:04.819Z,83.18
2023-04-06T00:43:31.211Z,82.90
2023-04-06T00:45:57.709Z,82.53
2023-04-06T00:48:23.947Z,82.37
2023-04-06T00:50:50.381Z,82.03
2023-04-06T00:53:16.741Z,81.69
2023-04-06T00:55:43.118Z,81.57
2023-04-06T00:58:09.494Z,81.34
2023-04-06T01:00:35.867Z,80.96
2023-04-06T01:03:02.341Z,80.61
2023-04-06T01:05:28.788Z,80.53
2023-04-06T01:07:55.118Z,80.26
2023-04-06T01:10:21.531Z,80.11
2023-04-06T01:12:47.887Z,79.96
2023-04-06T01:15:14.324Z,79.67
2023-04-06T01:17:40.786Z,79.33
2023-04-06T01:20:07.122Z,79.49
2023-04-06T01:22:33.491Z,79.53
2023-04-06T01:24:59.914Z,79.62
2023-04-06T01:27:26.309Z,79.48
2023-04-06T01:29:52.757Z,79.60
2023-04-06T01:32:19.117Z,79.64
2023-04-06T01:34:45.573Z,79.29
2023-04-06T01:37:11.966Z,79.11
2023-04-06T01:39:38.334Z,79.25
2023-04-06T01:42:04.710Z,79.65
2023-04-06T01:44:31.074Z,79.75
2023-04-06T01:46:57.509Z,79.40
2023-04-06T01:49:23.866Z,79.60
2023-04-06T01:51:50.265Z,80.02
2023-04-06T01:54:16.688Z,80.28
2023-04-06T01:56:43.013Z,80.41
2023-04-06T01:59:09.727Z,80.56
2023-04-06T02:01:35.802Z,80.94
2023-04-06T02:04:02.150Z,80.95
2023-04-06T02:06:28.573Z,80.77
2023-04-06T02:08:54.933Z,80.72
2023-04-06T02:11:21.333Z,80.92
2023-04-06T02:13:47.760Z,80.87
2023-04-06T02:16:14.127Z,80.83
2023-04-06T02:18:40.516Z,80.43
2023-04-06T02:21:06.913Z,80.15
2023-04-06T02:23:33.288Z,80.22
2023-04-06T02:25:59.702Z,80.32
2023-04-06T02:28:26.118Z,80.28
2023-04-06T02:30:52.532Z,80.58
2023-04-06T02:33:18.988Z,80.83
2023-04-06T02:35:45.411Z,81.27
2023-04-06T02:38:11.754Z,81.50
2023-04-06T02:40:38.123Z,81.63
2023-04-06T02:43:04.587Z,81.90
2023-04-06T02:45:30.991Z,81.95
2023-04-06T02:47:57.398Z,82.22
2023-04-06T02:50:23.742Z,82.48
2023-04-06T02:52:50.147Z,82.69
2023-04-06T02:55:16.517Z,82.72
2023-04-06T02:57:42.896Z,82.72
2023-04-06T03:00:09.300Z,82.68
2023-04-06T03:02:35.913Z,82.34
2023-04-06T03:05:02.140Z,81.46
2023-04-06T03:07:28.546Z,79.77
2023-04-06T03:09:54.972Z,78.48
2023-04-06T03:12:21.399Z,77.94
2023-04-06T03:14:47.799Z,78.01
2023-04-06T03:17:14.266Z,78.14
2023-04-06T03:19:40.663Z,78.72
2023-04-06T03:22:07.053Z,78.54
2023-04-06T03:24:33.480Z,78.39
2023-04-06T03:26:59.820Z,78.98
2023-04-06T03:29:26.181Z,79.62
2023-04-06T03:31:52.596Z,79.54
2023-04-06T03:34:19.004Z,79.07
2023-04-06T03:36:46.272Z,79.03
2023-04-06T03:39:11.813Z,78.91
2023-04-06T03:41:38.242Z,79.10
2023-04-06T03:44:04.599Z,79.30
2023-04-06T03:46:31.007Z,78.83
2023-04-06T03:48:57.338Z,78.78
2023-04-06T03:51:23.717Z,79.00
2023-04-06T03:53:50.188Z,79.42
2023-04-06T03:56:16.605Z,80.23
2023-04-06T03:58:43.000Z,80.68
2023-04-06T04:01:09.374Z,80.94
2023-04-06T04:03:35.800Z,81.05
2023-04-06T04:06:02.141Z,81.72
2023-04-06T04:08:28.561Z,81.87
2023-04-06T04:10:54.939Z,82.30
2023-04-06T04:13:21.309Z,82.68
2023-04-06T04:15:47.758Z,82.19
2023-04-06T04:18:14.163Z,82.32
2023-04-06T04:20:40.537Z,82.17
2023-04-06T04:23:06.905Z,81.51
2023-04-06T04:25:33.342Z,80.76
2023-04-06T04:27:59.672Z,80.30
2023-04-06T04:30:28.677Z,79.76
2023-04-06T04:32:55.197Z,79.27
2023-04-06T04:35:21.688Z,79.36
2023-04-06T04:37:48.269Z,79.47
2023-04-06T04:40:14.639Z,78.86
2023-04-06T04:42:41.050Z,78.60
2023-04-06T04:45:07.793Z,78.38
2023-04-06T04:47:34.182Z,77.56
2023-04-06T04:50:00.536Z,78.34
2023-04-06T04:52:26.951Z,79.30
2023-04-06T04:54:53.375Z,79.90
2023-04-06T04:57:19.730Z,80.10
2023-04-06T04:59:46.220Z,80.11
2023-04-06T05:02:12.748Z,79.88
2023-04-06T05:04:39.012Z,79.74
2023-04-06T05:07:05.592Z,79.90
2023-04-06T05:09:31.949Z,79.89
2023-04-06T05:11:58.430Z,80.04
2023-04-06T05:14:24.790Z,80.10
2023-04-06T05:16:51.350Z,79.76
2023-04-06T05:19:17.737Z,79.55
2023-04-06T05:21:44.102Z,79.62
2023-04-06T05:24:10.606Z,79.05
2023-04-06T05:26:37.039Z,78.48
2023-04-06T05:29:03.428Z,78.65
2023-04-06T05:31:29.866Z,78.46
2023-04-06T05:33:56.235Z,78.46
2023-04-06T05:36:22.637Z,78.38
2023-04-06T05:38:49.049Z,78.44
2023-04-06T05:41:15.411Z,78.26
2023-04-06T05:43:41.827Z,78.56
2023-04-06T05:46:08.304Z,78.55
2023-04-06T05:48:34.611Z,78.86
2023-04-06T05:51:01.204Z,79.14
2023-04-06T05:53:27.687Z,79.36
2023-04-06T05:55:54.054Z,79.39
2023-04-06T05:58:20.460Z,79.32
2023-04-06T06:00:46.820Z,79.16
2023-04-06T06:03:13.204Z,79.58
2023-04-06T06:05:39.670Z,79.57
2023-04-06T06:08:06.067Z,79.66
2023-04-06T06:10:32.478Z,79.86
2023-04-06T06:12:58.909Z,79.59
2023-04-06T06:15:25.325Z,79.87
2023-04-06T06:17:51.810Z,80.02
2023-04-06T06:20:18.124Z,79.21
2023-04-06T06:22:44.550Z,79.37
2023-04-06T06:25:10.915Z,79.02
2023-04-06T06:27:37.311Z,79.42
2023-04-06T06:30:03.752Z,79.05
2023-04-06T06:32:30.176Z,78.20
2023-04-06T06:34:56.566Z,77.99
2023-04-06T06:37:24.251Z,77.58
2023-04-06T06:39:50.621Z,77.91
2023-04-06T06:42:17.056Z,77.84
2023-04-06T06:44:43.478Z,77.30
2023-04-06T06:47:09.845Z,77.32
2023-04-06T06:49:36.213Z,76.79
2023-04-06T06:52:02.643Z,76.93
2023-04-06T06:54:29.057Z,77.31
2023-04-06T06:56:55.455Z,77.40
2023-04-06T06:59:21.907Z,77.73
2023-04-06T07:01:48.220Z,77.76
2023-04-06T07:04:14.697Z,77.31
2023-04-06T07:06:41.055Z,76.71
2023-04-06T07:09:07.451Z,76.40
2023-04-06T07:11:33.865Z,75.59
2023-04-06T07:14:00.285Z,73.93
2023-04-06T07:16:26.707Z,73.64
2023-04-06T07:18:53.099Z,74.07
2023-04-06T07:21:19.460Z,73.44
2023-04-06T07:23:45.861Z,73.17
2023-04-06T07:26:12.330Z,72.33
2023-04-06T07:28:38.743Z,71.77
2023-04-06T07:31:05.100Z,66.70
2023-04-06T07:33:31.521Z,65.96
2023-04-06T07:35:58.028Z,65.61
2023-04-06T07:38:24.344Z,65.64
2023-04-06T07:40:50.708Z,66.65
2023-04-06T07:43:17.084Z,65.68
2023-04-06T07:45:43.526Z,65.78
2023-04-06T07:48:09.925Z,66.52
2023-04-06T07:50:36.335Z,66.85
2023-04-06T07:53:02.713Z,63.66
2023-04-06T07:55:29.127Z,59.00
2023-04-06T07:57:55.542Z,59.12
2023-04-06T08:00:21.900Z,58.99
2023-04-06T08:02:48.470Z,57.64
2023-04-06T08:05:14.711Z,56.66
2023-04-06T08:07:41.098Z,57.68
2023-04-06T08:10:07.527Z,58.59
2023-04-06T08:12:33.906Z,58.86
2023-04-06T08:15:00.278Z,57.47
2023-04-06T08:17:26.687Z,54.44
2023-04-06T08:19:53.161Z,52.65
2023-04-06T08:22:19.565Z,52.64
2023-04-06T08:24:45.981Z,53.95
2023-04-06T08:27:12.426Z,52.51
2023-04-06T08:29:39.282Z,51.55
2023-04-06T08:32:05.658Z,50.53
2023-04-06T08:34:32.037Z,50.48
2023-04-06T08:36:58.469Z,51.68
2023-04-06T08:39:24.816Z,52.12
2023-04-06T08:41:51.213Z,52.21
2023-04-06T08:44:17.705Z,51.09
2023-04-06T08:46:44.219Z,52.07
2023-04-06T08:49:10.499Z,53.80
2023-04-06T08:51:36.977Z,54.86
2023-04-06T08:54:11.047Z,55.51
2023-04-06T08:56:37.836Z,53.82
2023-04-06T08:59:04.460Z,51.34
2023-04-06T09:01:30.872Z,53.17
2023-04-06T09:03:58.599Z,53.55
2023-04-06T09:06:26.809Z,53.27
2023-04-06T09:09:00.631Z,51.92
2023-04-06T09:11:28.067Z,51.12
2023-04-06T09:13:58.948Z,53.11
2023-04-06T09:16:25.330Z,51.79
2023-04-06T09:18:52.238Z,53.65
2023-04-06T09:21:21.520Z,55.43
2023-04-06T09:23:46.497Z,53.90
2023-04-06T09:26:12.862Z,50.35
2023-04-06T09:28:39.294Z,49.84
2023-04-06T09:31:06.743Z,48.87
2023-04-06T09:33:33.468Z,47.08
2023-04-06T09:35:59.929Z,48.50
2023-04-06T09:38:26.274Z,50.88
2023-04-06T09:41:00.852Z,50.87
2023-04-06T09:43:19.105Z,49.06
2023-04-06T09:45:45.514Z,48.96
2023-04-06T09:48:12.996Z,47.88
2023-04-06T09:50:39.352Z,45.80
2023-04-06T09:53:05.766Z,47.27
2023-04-06T09:55:32.232Z,48.56
2023-04-06T09:57:58.679Z,48.54
2023-04-06T10:00:26.093Z,48.80
2023-04-06T10:02:52.604Z,48.56
2023-04-06T10:05:18.871Z,49.15
2023-04-06T10:07:57.235Z,50.50
2023-04-06T10:10:11.674Z,50.50
2023-04-06T10:12:38.084Z,50.82
2023-04-06T10:15:04.537Z,50.09
2023-04-06T10:17:30.933Z,51.04
2023-04-06T10:19:59.514Z,49.73
2023-04-06T10:22:25.994Z,49.30
2023-04-06T10:24:52.364Z,49.55
2023-04-06T10:27:19.198Z,50.07
2023-04-06T10:29:46.410Z,51.01
2023-04-06T10:32:12.820Z,52.67
2023-04-06T10:34:39.160Z,51.57
2023-04-06T10:37:05.598Z,49.33
2023-04-06T10:39:32.015Z,48.02
2023-04-06T10:41:58.441Z,46.31
2023-04-06T10:44:24.846Z,47.25
2023-04-06T10:46:51.312Z,49.53
2023-04-06T10:49:17.685Z,49.23
2023-04-06T10:51:44.116Z,49.55
2023-04-06T10:54:10.530Z,49.16
2023-04-06T10:56:36.899Z,50.88
2023-04-06T10:59:03.515Z,49.56
2023-04-06T11:01:29.915Z,49.06
2023-04-06T11:03:56.307Z,46.65
2023-04-06T11:06:22.934Z,46.16
2023-04-06T11:08:49.387Z,46.60
2023-04-06T11:11:16.180Z,48.42
2023-04-06T11:13:42.587Z,49.78
2023-04-06T11:16:08.950Z,49.84
2023-04-06T11:18:35.545Z,48.77
2023-04-06T11:21:02.282Z,47.90
2023-04-06T11:23:28.737Z,48.87
2023-04-06T11:25:55.108Z,49.20
2023-04-06T11:28:21.517Z,48.94
2023-04-06T11:30:47.970Z,49.21
2023-04-06T11:33:14.350Z,49.34
2023-04-06T11:35:40.805Z,49.82
2023-04-06T11:38:07.146Z,50.32
2023-04-06T11:40:33.606Z,49.25
2023-04-06T11:42:59.977Z,49.49
2023-04-06T11:45:26.429Z,50.24
2023-04-06T11:47:52.903Z,49.77
2023-04-06T11:50:19.283Z,50.28
2023-04-06T11:52:46.205Z,50.67
2023-04-06T11:55:12.607Z,50.91
2023-04-06T11:57:39.124Z,51.85
2023-04-06T12:00:05.531Z,51.08
2023-04-06T12:02:32.146Z,51.53
2023-04-06T12:04:58.499Z,51.72
2023-04-06T12:07:24.886Z,52.33
2023-04-06T12:09:51.301Z,52.37
2023-04-06T12:12:17.672Z,52.94
2023-04-06T12:14:44.073Z,52.95
2023-04-06T12:17:10.477Z,53.49
2023-04-06T12:19:36.902Z,53.67
2023-04-06T12:22:03.304Z,52.98
2023-04-06T12:24:29.718Z,52.43
2023-04-06T12:27:08.673Z,52.17
2023-04-06T12:29:22.533Z,52.25
2023-04-06T12:31:49.027Z,52.41
2023-04-06T12:34:15.383Z,52.30
2023-04-06T12:36:41.787Z,52.31
2023-04-06T12:39:08.182Z,52.49
2023-04-06T12:41:34.579Z,53.05
2023-04-06T12:44:01.003Z,52.37
2023-04-06T12:46:27.475Z,51.90
2023-04-06T12:48:53.781Z,51.60
2023-04-06T12:51:20.157Z,51.87
2023-04-06T12:53:47.011Z,52.79
2023-04-06T12:56:13.442Z,52.62
2023-04-06T12:58:44.259Z,52.01
2023-04-06T13:01:12.767Z,52.49
2023-04-06T13:03:39.082Z,52.37
2023-04-06T13:06:05.446Z,51.83
2023-04-06T13:08:31.902Z,52.16
2023-04-06T13:10:58.281Z,52.34
2023-04-06T13:13:24.660Z,52.40
2023-04-06T13:15:51.355Z,52.33
2023-04-06T13:18:17.738Z,53.07
2023-04-06T13:20:44.102Z,53.34
2023-04-06T13:23:10.475Z,53.02
2023-04-06T13:25:36.976Z,52.86
2023-04-06T13:28:03.310Z,53.04
2023-04-06T13:30:29.699Z,52.68
2023-04-06T13:32:56.123Z,52.99
2023-04-06T13:35:22.480Z,52.28
2023-04-06T13:37:48.938Z,52.43
2023-04-06T13:40:15.379Z,51.58
2023-04-06T13:42:41.782Z,52.45
2023-04-06T13:45:08.220Z,52.44
2023-04-06T13:47:34.595Z,50.86
2023-04-06T13:50:01.002Z,50.48
2023-04-06T13:52:27.518Z,50.19
2023-04-06T13:54:53.915Z,50.25
2023-04-06T13:57:20.599Z,49.96
2023-04-06T13:59:47.050Z,49.36
2023-04-06T14:02:13.617Z,50.09
2023-04-06T14:04:39.919Z,49.65
2023-04-06T14:07:06.275Z,49.58
2023-04-06T14:09:32.671Z,49.92
2023-04-06T14:11:59.085Z,50.01
2023-04-06T14:14:25.684Z,49.38
2023-04-06T14:16:52.154Z,49.37
2023-04-06T14:19:18.515Z,49.52
2023-04-06T14:21:45.060Z,49.67
2023-04-06T14:24:11.478Z,50.45
2023-04-06T14:26:37.850Z,50.73
2023-04-06T14:29:04.283Z,50.76
2023-04-06T14:31:30.695Z,51.69
2023-04-06T14:33:57.135Z,51.71
2023-04-06T14:36:23.527Z,51.57
2023-04-06T14:38:49.962Z,52.66
2023-04-06T14:41:16.432Z,52.83
2023-04-06T14:43:42.944Z,52.82
2023-04-06T14:46:09.401Z,52.36
2023-04-06T14:48:36.804Z,53.02
2023-04-06T14:51:03.213Z,53.97
2023-04-06T14:53:29.638Z,54.68
2023-04-06T14:55:56.069Z,54.98
2023-04-06T14:58:22.511Z,55.50
2023-04-06T15:00:48.878Z,55.83
2023-04-06T15:03:15.364Z,54.49
2023-04-06T15:05:41.655Z,54.31
2023-04-06T15:08:08.041Z,55.09
2023-04-06T15:10:34.512Z,55.14
2023-04-06T15:13:00.886Z,55.25
2023-04-06T15:15:27.261Z,55.64
2023-04-06T15:17:53.731Z,55.91
2023-04-06T15:20:20.141Z,55.84
2023-04-06T15:22:46.512Z,56.27
2023-04-06T15:25:12.927Z,56.17
2023-04-06T15:27:39.317Z,55.58
2023-04-06T15:30:05.744Z,56.05
2023-04-06T15:32:32.219Z,55.88
2023-04-06T15:34:58.559Z,56.42
2023-04-06T15:37:24.938Z,56.40
2023-04-06T15:39:51.324Z,56.78
2023-04-06T15:42:17.970Z,57.11
2023-04-06T15:44:44.344Z,57.27
2023-04-06T15:47:10.765Z,57.86
2023-04-06T15:49:37.232Z,58.51
2023-04-06T15:52:03.611Z,59.02
2023-04-06T15:54:30.060Z,59.26
2023-04-06T15:56:56.617Z,59.37
2023-04-06T15:59:23.011Z,59.94
2023-04-06T16:01:49.780Z,59.87
2023-04-06T16:04:17.151Z,59.53
2023-04-06T16:06:43.503Z,59.86
2023-04-06T16:09:09.894Z,60.11
2023-04-06T16:11:36.279Z,60.31
2023-04-06T16:14:02.793Z,60.71
2023-04-06T16:16:29.296Z,61.48
2023-04-06T16:18:55.706Z,61.98
2023-04-06T16:21:22.043Z,62.00
2023-04-06T16:23:48.485Z,62.19
2023-04-06T16:26:15.618Z,62.26
2023-04-06T16:28:41.957Z,62.22
2023-04-06T16:31:08.402Z,62.17
2023-04-06T16:33:34.849Z,62.14
2023-04-06T16:36:01.279Z,61.56
2023-04-06T16:38:27.720Z,61.94
2023-04-06T16:40:54.150Z,62.10
2023-04-06T16:43:20.579Z,61.63
2023-04-06T16:45:47.062Z,61.48
2023-04-06T16:48:14.632Z,61.62
2023-04-06T16:50:39.996Z,61.45
2023-04-06T16:53:06.363Z,61.40
2023-04-06T16:55:32.850Z,61.54
2023-04-06T16:57:59.223Z,61.69
2023-04-06T17:00:25.630Z,61.78
2023-04-06T17:02:52.481Z,61.90
2023-04-06T17:05:18.729Z,61.96
2023-04-06T17:07:45.171Z,61.80
2023-04-06T17:10:11.759Z,61.70
2023-04-06T17:12:38.145Z,61.25
2023-04-06T17:15:04.562Z,61.52
2023-04-06T17:17:30.997Z,61.72
2023-04-06T17:19:57.544Z,61.66
2023-04-06T17:22:23.936Z,61.67
2023-04-06T17:24:50.374Z,61.35
2023-04-06T17:27:16.859Z,61.48
2023-04-06T17:29:43.330Z,61.43
2023-04-06T17:32:09.650Z,61.26
2023-04-06T17:34:36.034Z,61.26
2023-04-06T17:37:02.469Z,61.11
2023-04-06T17:39:28.858Z,61.14
2023-04-06T17:41:55.221Z,61.38
2023-04-06T17:44:21.599Z,61.50
2023-04-06T17:46:48.036Z,61.15
2023-04-06T17:49:14.408Z,61.02
2023-04-06T17:51:40.834Z,61.35
2023-04-06T17:54:07.212Z,61.27
2023-04-06T17:56:33.892Z,61.22
2023-04-06T17:59:01.328Z,61.34
2023-04-06T18:01:27.880Z,61.57
2023-04-06T18:03:54.282Z,61.49
2023-04-06T18:06:20.536Z,61.30
2023-04-06T18:08:46.935Z,61.10
2023-04-06T18:11:13.507Z,60.93
2023-04-06T18:13:40.337Z,60.81
2023-04-06T18:16:06.268Z,61.07
2023-04-06T18:18:32.673Z,60.99
2023-04-06T18:20:59.162Z,60.77
2023-04-06T18:23:25.758Z,60.93
2023-04-06T18:25:52.137Z,60.45
2023-04-06T18:28:18.538Z,60.56
2023-04-06T18:30:44.965Z,60.57
2023-04-06T18:33:11.354Z,60.75
2023-04-06T18:35:37.720Z,60.52
2023-04-06T18:38:04.423Z,60.77
2023-04-06T18:40:30.791Z,60.68
2023-04-06T18:42:57.167Z,60.60
2023-04-06T18:45:23.593Z,60.81
2023-04-06T18:47:50.372Z,60.58
2023-04-06T18:50:16.713Z,60.40
2023-04-06T18:52:43.195Z,60.16
2023-04-06T18:55:11.962Z,60.06
2023-04-06T18:57:38.414Z,59.76
2023-04-06T19:00:05.960Z,59.76
2023-04-06T19:02:32.496Z,59.37
2023-04-06T19:04:59.003Z,59.77
2023-04-06T19:07:25.335Z,59.93
2023-04-06T19:09:51.740Z,59.48
2023-04-06T19:12:18.166Z,59.47
2023-04-06T19:14:44.595Z,59.48
2023-04-06T19:17:11.025Z,59.09
2023-04-06T19:19:37.434Z,59.22
2023-04-06T19:22:03.803Z,59.07
2023-04-06T19:24:30.373Z,58.75
2023-04-06T19:26:56.883Z,58.73
2023-04-06T19:29:23.257Z,59.02
2023-04-06T19:31:49.701Z,59.20
2023-04-06T19:34:16.120Z,59.23
2023-04-06T19:36:42.485Z,59.08
2023-04-06T19:39:08.886Z,59.12
2023-04-06T19:41:35.378Z,58.96
2023-04-06T19:44:01.785Z,59.06
2023-04-06T19:46:28.216Z,59.13
2023-04-06T19:48:54.905Z,58.95
2023-04-06T19:51:21.260Z,58.40
2023-04-06T19:53:47.780Z,58.51
2023-04-06T19:56:14.252Z,58.62
2023-04-06T19:58:40.624Z,58.57
2023-04-06T20:01:07.026Z,58.63
2023-04-06T20:03:33.471Z,58.51
2023-04-06T20:05:59.895Z,58.56
2023-04-06T20:08:26.298Z,58.15
2023-04-06T20:10:52.702Z,57.92
2023-04-06T20:13:20.194Z,57.59
2023-04-06T20:15:46.591Z,56.85
2023-04-06T20:18:12.937Z,56.96
2023-04-06T20:20:39.348Z,57.28
2023-04-06T20:23:05.752Z,56.72
2023-04-06T20:25:32.469Z,56.41
2023-04-06T20:27:58.825Z,56.10
2023-04-06T20:30:25.187Z,55.65
2023-04-06T20:32:51.921Z,55.69
2023-04-06T20:35:18.360Z,56.07
2023-04-06T20:37:44.816Z,56.28
2023-04-06T20:40:11.196Z,56.14
2023-04-06T20:42:37.638Z,56.36
2023-04-06T20:45:04.025Z,56.16
2023-04-06T20:47:30.607Z,56.06
2023-04-06T20:49:56.932Z,56.09
2023-04-06T20:52:23.325Z,56.34
2023-04-06T20:54:49.741Z,56.59
2023-04-06T20:57:16.148Z,56.92
2023-04-06T20:59:42.545Z,57.03
2023-04-06T21:02:09.123Z,57.32
2023-04-06T21:04:35.552Z,57.21
2023-04-06T21:07:01.835Z,57.25
2023-04-06T21:09:28.342Z,57.42
2023-04-06T21:11:54.780Z,57.54
2023-04-06T21:14:21.323Z,57.75
2023-04-06T21:16:47.588Z,57.73
2023-04-06T21:19:13.990Z,57.83
2023-04-06T21:21:40.393Z,57.88
2023-04-06T21:24:06.875Z,58.24
2023-04-06T21:26:33.235Z,58.43
2023-04-06T21:28:59.583Z,58.29
2023-04-06T21:31:26.112Z,58.39
2023-04-06T21:33:52.454Z,58.20
2023-04-06T21:36:18.864Z,58.01
2023-04-06T21:38:45.232Z,58.01
2023-04-06T21:41:11.645Z,58.09
2023-04-06T21:43:38.013Z,58.25
2023-04-06T21:46:04.431Z,58.20
2023-04-06T21:48:30.855Z,58.16
2023-04-06T21:50:57.276Z,58.28
2023-04-06T21:53:23.610Z,58.57
2023-04-06T21:55:50.036Z,58.63
2023-04-06T21:58:16.422Z,58.72
2023-04-06T22:00:42.836Z,58.86
2023-04-06T22:03:09.339Z,58.84
2023-04-06T22:05:35.564Z,59.10
2023-04-06T22:08:01.968Z,58.85
2023-04-06T22:10:28.336Z,59.02
2023-04-06T22:12:54.730Z,59.08
2023-04-06T22:15:21.142Z,59.21
2023-04-06T22:17:47.558Z,59.32
2023-04-06T22:20:13.923Z,59.36
2023-04-06T22:22:40.330Z,59.22
2023-04-06T22:25:06.740Z,59.42
2023-04-06T22:27:33.189Z,59.46
2023-04-06T22:29:59.591Z,59.52
2023-04-06T22:32:26.099Z,59.53
2023-04-06T22:34:52.411Z,59.57
2023-04-06T22:37:18.830Z,59.67
2023-04-06T22:39:45.257Z,59.79
2023-04-06T22:42:11.662Z,59.82
2023-04-06T22:44:38.082Z,59.90
2023-04-06T22:47:04.494Z,60.22
2023-04-06T22:49:30.881Z,60.18
2023-04-06T22:51:57.252Z,60.17
2023-04-06T22:54:23.647Z,60.22
2023-04-06T22:56:50.053Z,60.38
2023-04-06T22:59:16.470Z,60.47
2023-04-06T23:01:43.065Z,60.58
2023-04-06T23:04:09.411Z,60.64
2023-04-06T23:06:35.690Z,60.74
2023-04-06T23:09:02.310Z,60.80
2023-04-06T23:11:28.672Z,60.65
2023-04-06T23:13:55.069Z,60.61
2023-04-06T23:16:21.501Z,60.75
2023-04-06T23:18:47.849Z,60.56
2023-04-06T23:21:14.240Z,60.48
2023-04-06T23:23:40.663Z,60.44
2023-04-06T23:26:07.059Z,60.35
2023-04-06T23:28:33.608Z,60.52
2023-04-06T23:30:59.967Z,60.50
2023-04-06T23:33:26.355Z,61.62
2023-04-06T23:35:53.063Z,64.53
2023-04-06T23:38:19.440Z,67.26
2023-04-06T23:40:45.833Z,69.12
2023-04-06T23:43:12.238Z,70.43
2023-04-06T23:45:38.756Z,71.28
2023-04-06T23:48:05.276Z,71.99
2023-04-06T23:50:31.630Z,72.75
2023-04-06T23:52:58.003Z,73.22
2023-04-06T23:55:24.373Z,73.49
2023-04-06T23:57:50.856Z,74.71
